createdAt,value
2023-02-09T00:01:19.194Z,-6.80
2023-02-09T00:03:46.611Z,-6.80
2023-02-09T00:06:17.857Z,-6.90
2023-02-09T00:08:44.868Z,-7.00
2023-02-09T00:11:18.446Z,-7.10
2023-02-09T00:13:45.423Z,-7.20
2023-02-09T00:16:12.378Z,-7.30
2023-02-09T00:18:39.351Z,-7.30
2023-02-09T00:21:10.677Z,-7.40
2023-02-09T00:23:41.003Z,-7.50
2023-02-09T00:26:11.267Z,-7.50
2023-02-09T00:28:39.156Z,-7.50
2023-02-09T00:31:08.721Z,-7.60
2023-02-09T00:33:36.291Z,-7.60
2023-02-09T00:36:07.648Z,-7.60
2023-02-09T00:38:35.535Z,-7.60
2023-02-09T00:41:03.194Z,-7.60
2023-02-09T00:43:30.135Z,-7.60
2023-02-09T00:45:57.129Z,-7.60
2023-02-09T00:48:24.188Z,-7.60
2023-02-09T00:50:52.372Z,-7.70
2023-02-09T00:53:20.437Z,-7.70
2023-02-09T00:55:47.710Z,-7.70
2023-02-09T00:58:14.718Z,-7.60
2023-02-09T01:00:41.665Z,-7.50
2023-02-09T01:03:09.195Z,-7.40
2023-02-09T01:05:40.271Z,-7.30
2023-02-09T01:08:07.513Z,-7.20
2023-02-09T01:10:34.764Z,-7.10
2023-02-09T01:13:01.742Z,-6.90
2023-02-09T01:15:29.679Z,-6.90
2023-02-09T01:17:58.030Z,-6.80
2023-02-09T01:20:26.204Z,-6.90
2023-02-09T01:22:53.175Z,-6.90
2023-02-09T01:25:20.114Z,-6.90
2023-02-09T01:27:46.999Z,-6.90
2023-02-09T01:30:14.817Z,-6.90
2023-02-09T01:32:41.759Z,-6.90
2023-02-09T01:35:09.132Z,-7.00
2023-02-09T01:37:38.012Z,-7.00
2023-02-09T01:40:06.636Z,-7.00
2023-02-09T01:42:35.208Z,-7.00
2023-02-09T01:45:15.971Z,-7.00
2023-02-09T01:47:47.317Z,-7.00
2023-02-09T01:50:15.721Z,-7.00
2023-02-09T01:52:44.737Z,-7.00
2023-02-09T01:55:15.027Z,-7.10
2023-02-09T01:57:53.214Z,-7.10
2023-02-09T02:00:21.361Z,-7.20
2023-02-09T02:02:56.161Z,-7.20
2023-02-09T02:05:25.122Z,-7.20
2023-02-09T02:08:07.826Z,-7.10
2023-02-09T02:10:35.108Z,-7.10
2023-02-09T02:13:03.140Z,-7.00
2023-02-09T02:15:37.173Z,-6.90
2023-02-09T02:18:20.294Z,-6.90
2023-02-09T02:21:14.012Z,-6.80
2023-02-09T02:24:05.792Z,-6.90
2023-02-09T02:27:02.050Z,-6.90
2023-02-09T02:30:02.994Z,-6.90
2023-02-09T02:33:14.787Z,-6.90
2023-02-09T02:35:53.856Z,-6.90
2023-02-09T02:38:49.512Z,-6.90
2023-02-09T02:41:20.550Z,-7.00
2023-02-09T02:44:03.140Z,-7.00
2023-02-09T02:46:41.970Z,-7.10
2023-02-09T02:49:31.450Z,-7.20
2023-02-09T02:52:04.066Z,-7.30
2023-02-09T02:54:35.261Z,-7.40
2023-02-09T02:57:11.664Z,-7.40
2023-02-09T02:59:44.443Z,-7.40
2023-02-09T03:02:20.155Z,-7.40
2023-02-09T03:04:50.563Z,-7.50
2023-02-09T03:07:18.423Z,-7.50
2023-02-09T03:09:52.790Z,-7.50
2023-02-09T03:12:52.138Z,-7.60
2023-02-09T03:15:33.137Z,-7.60
2023-02-09T03:18:26.622Z,-7.80
2023-02-09T03:21:15.940Z,-7.90
2023-02-09T03:23:54.456Z,-8.00
2023-02-09T03:26:27.654Z,-8.00
2023-02-09T03:28:57.897Z,-8.10
2023-02-09T03:31:25.491Z,-8.10
2023-02-09T03:33:52.531Z,-8.10
2023-02-09T03:36:20.609Z,-8.20
2023-02-09T03:38:47.557Z,-8.20
2023-02-09T03:41:14.409Z,-8.20
2023-02-09T03:43:59.882Z,-8.30
2023-02-09T03:46:26.778Z,-8.30
2023-02-09T03:48:53.718Z,-8.40
2023-02-09T03:51:20.605Z,-8.40
2023-02-09T03:53:47.458Z,-8.50
2023-02-09T03:56:14.367Z,-8.50
2023-02-09T03:58:41.284Z,-8.50
2023-02-09T04:01:10.626Z,-8.60
2023-02-09T04:03:39.874Z,-8.60
2023-02-09T04:06:06.917Z,-8.60
2023-02-09T04:08:33.805Z,-8.70
2023-02-09T04:11:00.705Z,-8.70
2023-02-09T04:13:27.791Z,-8.80
2023-02-09T04:15:54.717Z,-8.80
2023-02-09T04:18:21.612Z,-8.70
2023-02-09T04:20:48.578Z,-8.80
2023-02-09T04:23:15.579Z,-8.80
2023-02-09T04:25:42.815Z,-8.70
2023-02-09T04:28:09.760Z,-8.80
2023-02-09T04:30:36.779Z,-8.80
2023-02-09T04:33:03.866Z,-8.80
2023-02-09T04:35:30.925Z,-8.80
2023-02-09T04:37:57.749Z,-8.80
2023-02-09T04:40:24.590Z,-8.80
2023-02-09T04:42:51.428Z,-8.80
2023-02-09T04:45:18.408Z,-8.80
2023-02-09T04:47:45.287Z,-8.80
2023-02-09T04:50:12.127Z,-8.80
2023-02-09T04:52:39.030Z,-8.80
2023-02-09T04:55:06.075Z,-8.80
2023-02-09T04:57:51.571Z,-8.80
2023-02-09T05:00:18.619Z,-8.80
2023-02-09T05:02:45.427Z,-8.80
2023-02-09T05:05:12.257Z,-8.80
2023-02-09T05:07:39.147Z,-8.90
2023-02-09T05:10:06.499Z,-8.90
2023-02-09T05:12:33.340Z,-9.00
2023-02-09T05:15:00.236Z,-9.00
2023-02-09T05:17:27.118Z,-9.00
2023-02-09T05:19:54.009Z,-9.00
2023-02-09T05:22:20.878Z,-9.00
2023-02-09T05:24:47.704Z,-9.10
2023-02-09T05:27:14.678Z,-9.00
2023-02-09T05:29:41.525Z,-9.00
2023-02-09T05:32:08.636Z,-9.00
2023-02-09T05:34:35.612Z,-9.00
2023-02-09T05:37:02.449Z,-9.00
2023-02-09T05:39:29.327Z,-9.10
2023-02-09T05:42:14.882Z,-9.00
2023-02-09T05:44:47.347Z,-8.90
2023-02-09T05:47:17.328Z,-8.80
2023-02-09T05:49:44.407Z,-8.80
2023-02-09T05:52:12.236Z,-8.70
2023-02-09T05:54:39.207Z,-8.70
2023-02-09T05:57:06.697Z,-8.70
2023-02-09T05:59:33.552Z,-8.80
2023-02-09T06:02:00.787Z,-8.80
2023-02-09T06:04:28.556Z,-8.80
2023-02-09T06:06:55.785Z,-8.90
2023-02-09T06:09:22.959Z,-8.90
2023-02-09T06:11:49.912Z,-9.00
2023-02-09T06:14:17.748Z,-9.00
2023-02-09T06:16:44.843Z,-9.10
2023-02-09T06:19:17.364Z,-9.20
2023-02-09T06:21:44.919Z,-9.20
2023-02-09T06:24:13.158Z,-9.20
2023-02-09T06:26:40.960Z,-9.20
2023-02-09T06:29:08.112Z,-9.30
2023-02-09T06:31:35.488Z,-9.30
2023-02-09T06:34:02.538Z,-9.40
2023-02-09T06:36:29.390Z,-9.30
2023-02-09T06:38:56.276Z,-9.30
2023-02-09T06:41:23.115Z,-9.30
2023-02-09T06:43:49.977Z,-9.30
2023-02-09T06:46:17.037Z,-9.30
2023-02-09T06:48:43.927Z,-9.30
2023-02-09T06:51:13.318Z,-9.30
2023-02-09T06:53:41.170Z,-9.20
2023-02-09T06:56:08.735Z,-9.20
2023-02-09T06:58:36.904Z,-9.20
2023-02-09T07:01:05.737Z,-9.20
2023-02-09T07:03:32.831Z,-9.20
2023-02-09T07:06:07.918Z,-9.20
2023-02-09T07:08:35.377Z,-9.10
2023-02-09T07:11:08.776Z,-9.10
2023-02-09T07:13:36.195Z,-9.10
2023-02-09T07:16:07.630Z,-9.10
2023-02-09T07:18:34.967Z,-9.00
2023-02-09T07:21:18.400Z,-9.00
2023-02-09T07:23:46.070Z,-8.90
2023-02-09T07:26:15.390Z,-8.90
2023-02-09T07:28:42.336Z,-8.80
2023-02-09T07:31:12.440Z,-8.70
2023-02-09T07:33:39.488Z,-8.60
2023-02-09T07:36:08.562Z,-8.70
2023-02-09T07:38:35.827Z,-8.60
2023-02-09T07:41:04.592Z,-8.50
2023-02-09T07:43:32.098Z,-8.50
2023-02-09T07:46:07.083Z,-8.40
2023-02-09T07:48:35.081Z,-8.30
2023-02-09T07:51:02.812Z,-8.30
2023-02-09T07:53:30.158Z,-8.20
2023-02-09T07:55:57.411Z,-8.10
2023-02-09T07:58:24.472Z,-8.00
2023-02-09T08:00:51.685Z,-7.90
2023-02-09T08:03:23.874Z,-7.80
2023-02-09T08:06:10.279Z,-7.70
2023-02-09T08:08:37.115Z,-7.60
2023-02-09T08:11:05.609Z,-7.50
2023-02-09T08:13:38.057Z,-7.30
2023-02-09T08:16:09.885Z,-7.00
2023-02-09T08:18:44.839Z,-6.50
2023-02-09T08:21:14.919Z,-5.90
2023-02-09T08:23:43.475Z,-5.30
2023-02-09T08:26:13.160Z,-4.80
2023-02-09T08:28:45.540Z,-4.20
2023-02-09T08:31:15.495Z,-3.70
2023-02-09T08:33:43.647Z,-3.10
2023-02-09T08:36:11.827Z,-2.70
2023-02-09T08:38:39.036Z,-2.40
2023-02-09T08:41:07.423Z,-2.30
2023-02-09T08:43:34.677Z,-2.10
2023-02-09T08:46:13.297Z,-2.00
2023-02-09T08:48:43.557Z,-1.80
2023-02-09T08:51:12.539Z,-1.50
2023-02-09T08:53:39.808Z,-1.10
2023-02-09T08:56:06.986Z,-0.60
2023-02-09T08:58:33.904Z,-0.20
2023-02-09T09:01:01.129Z,0.10
2023-02-09T09:03:31.578Z,0.40
2023-02-09T09:06:04.368Z,0.70
2023-02-09T09:08:32.445Z,1.00
2023-02-09T09:10:59.455Z,1.50
2023-02-09T09:13:27.328Z,1.90
2023-02-09T09:15:57.586Z,2.10
2023-02-09T09:18:25.900Z,2.30
2023-02-09T09:20:53.233Z,2.50
2023-02-09T09:23:21.298Z,2.70
2023-02-09T09:25:48.707Z,3.10
2023-02-09T09:28:16.223Z,3.50
2023-02-09T09:30:43.337Z,3.80
2023-02-09T09:33:10.211Z,4.10
2023-02-09T09:35:37.110Z,4.50
2023-02-09T09:38:04.765Z,4.90
2023-02-09T09:40:37.416Z,5.30
2023-02-09T09:43:28.380Z,5.70
2023-02-09T09:45:55.399Z,6.10
2023-02-09T09:48:25.827Z,6.50
2023-02-09T09:50:59.820Z,6.80
2023-02-09T09:53:33.422Z,7.00
2023-02-09T09:56:07.915Z,7.30
2023-02-09T09:58:39.107Z,7.70
2023-02-09T10:01:06.827Z,7.90
2023-02-09T10:03:33.763Z,8.00
2023-02-09T10:06:11.526Z,8.10
2023-02-09T10:08:51.024Z,8.30
2023-02-09T10:11:23.922Z,8.70
2023-02-09T10:13:53.307Z,9.10
2023-02-09T10:16:20.237Z,9.60
2023-02-09T10:18:55.525Z,9.80
2023-02-09T10:21:24.838Z,9.90
2023-02-09T10:24:10.127Z,10.10
2023-02-09T10:26:40.073Z,10.50
2023-02-09T10:29:13.201Z,11.00
2023-02-09T10:31:48.209Z,11.50
2023-02-09T10:34:31.387Z,12.00
2023-02-09T10:37:21.178Z,12.40
2023-02-09T10:40:00.337Z,12.30
2023-02-09T10:42:34.019Z,12.60
2023-02-09T10:45:26.921Z,12.60
2023-02-09T10:48:15.254Z,12.90
2023-02-09T10:50:58.424Z,13.20
2023-02-09T10:53:32.328Z,13.60
2023-02-09T10:56:04.041Z,13.90
2023-02-09T10:58:35.988Z,14.00
2023-02-09T11:01:16.997Z,14.20
2023-02-09T11:04:17.551Z,14.40
2023-02-09T11:06:54.881Z,14.80
2023-02-09T11:09:34.962Z,15.10
2023-02-09T11:12:01.965Z,15.20
2023-02-09T11:14:29.210Z,15.30
2023-02-09T11:17:05.145Z,15.40
2023-02-09T11:19:49.248Z,15.40
2023-02-09T11:22:33.602Z,15.50
2023-02-09T11:25:22.289Z,15.60
2023-02-09T11:28:15.884Z,15.90
2023-02-09T11:31:13.618Z,16.10
2023-02-09T11:33:56.276Z,16.30
2023-02-09T11:36:29.234Z,16.00
2023-02-09T11:39:03.206Z,15.80
2023-02-09T11:41:56.326Z,15.90
2023-02-09T11:45:02.465Z,15.60
2023-02-09T11:47:51.833Z,14.60
2023-02-09T11:50:28.486Z,14.10
2023-02-09T11:52:59.702Z,14.20
2023-02-09T11:55:36.200Z,14.50
2023-02-09T11:58:29.062Z,14.20
2023-02-09T12:01:21.210Z,13.70
2023-02-09T12:04:05.273Z,14.00
2023-02-09T12:06:42.608Z,14.10
2023-02-09T12:09:18.882Z,14.00
2023-02-09T12:12:02.714Z,13.90
2023-02-09T12:14:43.087Z,13.70
2023-02-09T12:17:21.512Z,13.90
2023-02-09T12:19:56.924Z,14.20
2023-02-09T12:22:36.138Z,14.50
2023-02-09T12:25:12.024Z,14.80
2023-02-09T12:28:05.044Z,15.10
2023-02-09T12:30:41.234Z,15.10
2023-02-09T12:33:36.315Z,15.10
2023-02-09T12:36:16.103Z,14.60
2023-02-09T12:39:04.737Z,14.00
2023-02-09T12:41:32.034Z,13.60
2023-02-09T12:44:10.837Z,13.40
2023-02-09T12:46:55.759Z,13.30
2023-02-09T12:49:28.902Z,12.70
2023-02-09T12:52:01.964Z,12.60
2023-02-09T12:54:55.507Z,12.50
2023-02-09T12:57:22.378Z,12.60
2023-02-09T13:00:00.861Z,12.70
2023-02-09T13:02:33.492Z,12.90
2023-02-09T13:05:11.932Z,13.00
2023-02-09T13:07:43.094Z,13.10
2023-02-09T13:10:19.293Z,12.60
2023-02-09T13:12:52.845Z,12.40
2023-02-09T13:15:19.998Z,12.30
2023-02-09T13:18:22.933Z,12.50
2023-02-09T13:21:17.964Z,12.40
2023-02-09T13:24:00.726Z,12.40
2023-02-09T13:26:32.885Z,12.30
2023-02-09T13:29:21.439Z,12.10
2023-02-09T13:31:54.945Z,11.60
2023-02-09T13:34:44.818Z,11.00
2023-02-09T13:37:25.001Z,10.50
2023-02-09T13:40:00.860Z,10.00
2023-02-09T13:42:30.473Z,9.90
2023-02-09T13:44:59.496Z,10.10
2023-02-09T13:47:27.880Z,10.20
2023-02-09T13:50:14.228Z,10.30
2023-02-09T13:52:41.303Z,10.00
2023-02-09T13:55:26.147Z,9.70
2023-02-09T13:58:08.081Z,9.70
2023-02-09T14:00:45.542Z,9.80
2023-02-09T14:03:27.338Z,9.90
2023-02-09T14:06:20.424Z,9.80
2023-02-09T14:08:48.718Z,9.50
2023-02-09T14:11:41.514Z,9.40
2023-02-09T14:14:24.313Z,9.20
2023-02-09T14:17:25.338Z,9.10
2023-02-09T14:19:53.451Z,8.90
2023-02-09T14:22:35.502Z,9.00
2023-02-09T14:25:14.375Z,9.00
2023-02-09T14:27:45.775Z,9.00
2023-02-09T14:30:20.464Z,8.90
2023-02-09T14:32:52.972Z,8.60
2023-02-09T14:35:34.963Z,8.60
2023-02-09T14:38:02.884Z,8.60
2023-02-09T14:40:34.194Z,8.70
2023-02-09T14:43:24.946Z,8.80
2023-02-09T14:46:00.327Z,8.80
2023-02-09T14:48:31.442Z,8.60
2023-02-09T14:51:14.606Z,8.50
2023-02-09T14:53:43.764Z,8.40
2023-02-09T14:56:43.098Z,8.00
2023-02-09T14:59:17.016Z,7.70
2023-02-09T15:01:46.010Z,7.50
2023-02-09T15:04:12.924Z,7.30
2023-02-09T15:06:42.845Z,7.20
2023-02-09T15:09:17.816Z,7.10
2023-02-09T15:12:03.401Z,6.90
2023-02-09T15:14:33.375Z,6.50
2023-02-09T15:17:01.333Z,6.10
2023-02-09T15:19:28.669Z,5.80
2023-02-09T15:22:06.464Z,5.70
2023-02-09T15:24:35.666Z,5.60
2023-02-09T15:27:02.910Z,5.50
2023-02-09T15:29:30.777Z,5.30
2023-02-09T15:31:57.767Z,5.10
2023-02-09T15:34:24.597Z,4.90
2023-02-09T15:36:51.553Z,4.80
2023-02-09T15:39:23.671Z,4.70
2023-02-09T15:42:19.842Z,4.60
2023-02-09T15:45:07.698Z,4.50
2023-02-09T15:47:49.801Z,4.40
2023-02-09T15:50:16.901Z,4.20
2023-02-09T15:52:43.812Z,4.10
2023-02-09T15:55:18.500Z,4.00
2023-02-09T15:57:45.504Z,3.90
2023-02-09T16:00:21.330Z,3.80
2023-02-09T16:02:49.593Z,3.60
2023-02-09T16:05:16.675Z,3.50
2023-02-09T16:07:43.772Z,3.30
2023-02-09T16:10:15.456Z,3.20
2023-02-09T16:12:42.371Z,3.00
2023-02-09T16:15:17.651Z,2.90
2023-02-09T16:17:44.706Z,2.70
2023-02-09T16:20:13.370Z,2.50
2023-02-09T16:22:42.580Z,2.40
2023-02-09T16:25:21.681Z,2.30
2023-02-09T16:27:49.970Z,2.10
2023-02-09T16:30:23.298Z,1.90
2023-02-09T16:32:51.005Z,1.80
2023-02-09T16:35:19.143Z,1.60
2023-02-09T16:37:47.999Z,1.50
2023-02-09T16:40:20.711Z,1.30
2023-02-09T16:42:48.653Z,1.20
2023-02-09T16:45:17.376Z,1.00
2023-02-09T16:47:49.865Z,0.90
2023-02-09T16:50:33.055Z,0.80
2023-02-09T16:53:04.454Z,0.70
2023-02-09T16:55:34.144Z,0.50
2023-02-09T16:58:03.727Z,0.40
2023-02-09T17:00:35.689Z,0.30
2023-02-09T17:03:15.059Z,0.20
2023-02-09T17:05:45.902Z,0.00
2023-02-09T17:08:25.225Z,-0.10
2023-02-09T17:10:54.368Z,-0.20
2023-02-09T17:13:22.331Z,-0.30
2023-02-09T17:15:53.306Z,-0.40
2023-02-09T17:18:31.332Z,-0.50
2023-02-09T17:21:22.921Z,-0.70
2023-02-09T17:23:50.533Z,-0.80
2023-02-09T17:26:17.410Z,-0.90
2023-02-09T17:28:44.429Z,-1.00
2023-02-09T17:31:43.737Z,-1.10
2023-02-09T17:34:17.904Z,-1.20
2023-02-09T17:36:45.105Z,-1.30
2023-02-09T17:39:12.439Z,-1.40
2023-02-09T17:41:44.809Z,-1.50
2023-02-09T17:44:39.604Z,-1.60
2023-02-09T17:47:19.826Z,-1.70
2023-02-09T17:49:47.134Z,-1.80
2023-02-09T17:52:18.792Z,-1.90
2023-02-09T17:54:46.027Z,-2.00
2023-02-09T17:57:17.361Z,-2.10
2023-02-09T17:59:46.077Z,-2.10
2023-02-09T18:02:19.715Z,-2.20
2023-02-09T18:04:46.732Z,-2.30
2023-02-09T18:07:20.097Z,-2.40
2023-02-09T18:09:47.070Z,-2.40
2023-02-09T18:12:20.494Z,-2.50
2023-02-09T18:14:47.474Z,-2.60
2023-02-09T18:17:14.747Z,-2.60
2023-02-09T18:19:41.608Z,-2.70
2023-02-09T18:22:13.873Z,-2.80
2023-02-09T18:24:41.848Z,-2.80
2023-02-09T18:27:13.517Z,-3.00
2023-02-09T18:29:40.375Z,-3.00
2023-02-09T18:32:07.414Z,-3.00
2023-02-09T18:34:35.986Z,-3.00
2023-02-09T18:37:02.943Z,-3.00
2023-02-09T18:39:30.757Z,-3.00
2023-02-09T18:41:57.623Z,-3.00
2023-02-09T18:44:29.196Z,-3.10
2023-02-09T18:46:57.763Z,-3.20
2023-02-09T18:49:24.656Z,-3.30
2023-02-09T18:51:52.286Z,-3.40
2023-02-09T18:54:19.336Z,-3.40
2023-02-09T18:56:46.284Z,-3.50
2023-02-09T18:59:13.275Z,-3.60
2023-02-09T19:01:40.992Z,-3.60
2023-02-09T19:04:08.072Z,-3.70
2023-02-09T19:06:35.547Z,-3.80
2023-02-09T19:09:02.447Z,-3.90
2023-02-09T19:11:29.297Z,-3.90
2023-02-09T19:14:14.982Z,-4.00
2023-02-09T19:16:41.875Z,-4.00
2023-02-09T19:19:13.439Z,-4.10
2023-02-09T19:21:40.343Z,-4.10
2023-02-09T19:24:07.262Z,-4.20
2023-02-09T19:26:34.290Z,-4.30
2023-02-09T19:29:01.192Z,-4.30
2023-02-09T19:31:28.110Z,-4.40
2023-02-09T19:33:56.645Z,-4.40
2023-02-09T19:36:25.196Z,-4.40
2023-02-09T19:38:52.074Z,-4.50
2023-02-09T19:41:20.534Z,-4.60
2023-02-09T19:43:47.390Z,-4.60
2023-02-09T19:46:14.539Z,-4.70
2023-02-09T19:48:41.689Z,-4.70
2023-02-09T19:51:08.988Z,-4.80
2023-02-09T19:53:36.095Z,-4.80
2023-02-09T19:56:02.958Z,-4.90
2023-02-09T19:58:30.117Z,-4.90
2023-02-09T20:00:57.158Z,-5.00
2023-02-09T20:03:24.500Z,-5.00
2023-02-09T20:05:51.501Z,-5.00
2023-02-09T20:08:20.059Z,-5.10
2023-02-09T20:10:47.776Z,-5.10
2023-02-09T20:13:15.804Z,-5.20
2023-02-09T20:15:43.861Z,-5.20
2023-02-09T20:18:12.172Z,-5.20
2023-02-09T20:20:41.419Z,-5.30
2023-02-09T20:23:09.027Z,-5.30
2023-02-09T20:25:36.062Z,-5.40
2023-02-09T20:28:03.123Z,-5.50
2023-02-09T20:30:30.119Z,-5.50
2023-02-09T20:32:56.986Z,-5.50
2023-02-09T20:35:23.836Z,-5.60
2023-02-09T20:37:52.872Z,-5.60
2023-02-09T20:40:20.004Z,-5.60
2023-02-09T20:43:05.691Z,-5.70
2023-02-09T20:45:51.058Z,-5.70
2023-02-09T20:48:18.265Z,-5.70
2023-02-09T20:50:45.646Z,-5.70
2023-02-09T20:53:13.140Z,-5.80
2023-02-09T20:55:40.004Z,-5.80
2023-02-09T20:58:06.928Z,-5.80
2023-02-09T21:00:33.848Z,-5.80
2023-02-09T21:03:01.128Z,-5.90
2023-02-09T21:05:27.987Z,-5.90
2023-02-09T21:07:55.458Z,-6.00
2023-02-09T21:10:23.089Z,-6.00
2023-02-09T21:12:49.959Z,-6.00
2023-02-09T21:15:16.883Z,-6.10
2023-02-09T21:17:47.997Z,-6.10
2023-02-09T21:20:18.035Z,-6.10
2023-02-09T21:22:44.989Z,-6.10
2023-02-09T21:25:11.849Z,-6.20
2023-02-09T21:27:39.094Z,-6.20
2023-02-09T21:30:06.621Z,-6.10
2023-02-09T21:32:35.009Z,-6.10
2023-02-09T21:35:01.990Z,-6.10
2023-02-09T21:37:32.393Z,-6.10
2023-02-09T21:40:02.976Z,-6.10
2023-02-09T21:42:31.274Z,-6.20
2023-02-09T21:44:59.582Z,-6.20
2023-02-09T21:47:35.495Z,-6.20
2023-02-09T21:50:02.345Z,-6.20
2023-02-09T21:52:30.068Z,-6.20
2023-02-09T21:54:57.051Z,-6.20
2023-02-09T21:57:23.994Z,-6.20
2023-02-09T21:59:50.848Z,-6.30
2023-02-09T22:02:18.609Z,-6.30
2023-02-09T22:04:46.854Z,-6.30
2023-02-09T22:07:14.664Z,-6.30
2023-02-09T22:09:41.635Z,-6.40
2023-02-09T22:12:09.130Z,-6.40
2023-02-09T22:14:36.083Z,-6.40
2023-02-09T22:17:03.109Z,-6.40
2023-02-09T22:19:30.071Z,-6.50
2023-02-09T22:21:58.102Z,-6.50
2023-02-09T22:24:25.364Z,-6.60
2023-02-09T22:26:52.441Z,-6.50
2023-02-09T22:29:19.603Z,-6.60
2023-02-09T22:31:46.561Z,-6.60
2023-02-09T22:34:13.453Z,-6.60
2023-02-09T22:36:40.521Z,-6.60
2023-02-09T22:39:08.023Z,-6.60
2023-02-09T22:41:35.731Z,-6.70
2023-02-09T22:44:05.908Z,-6.70
2023-02-09T22:46:39.084Z,-6.80
2023-02-09T22:49:13.767Z,-6.80
2023-02-09T22:51:40.814Z,-6.80
2023-02-09T22:54:07.691Z,-6.80
2023-02-09T22:56:34.876Z,-6.80
2023-02-09T22:59:01.927Z,-6.80
2023-02-09T23:01:29.714Z,-6.90
2023-02-09T23:03:57.407Z,-6.90
2023-02-09T23:06:27.376Z,-6.80
2023-02-09T23:09:00.018Z,-6.90
2023-02-09T23:11:27.878Z,-6.90
2023-02-09T23:14:08.470Z,-6.90
2023-02-09T23:16:37.152Z,-7.00
2023-02-09T23:19:06.663Z,-7.00
2023-02-09T23:21:37.833Z,-7.00
2023-02-09T23:24:05.416Z,-7.00
2023-02-09T23:26:32.592Z,-7.00
2023-02-09T23:29:02.020Z,-7.00
2023-02-09T23:31:29.303Z,-7.00
2023-02-09T23:33:56.591Z,-7.00
2023-02-09T23:36:26.552Z,-7.00
2023-02-09T23:38:55.813Z,-7.10
2023-02-09T23:41:23.701Z,-7.10
2023-02-09T23:43:51.490Z,-7.10
2023-02-09T23:46:22.229Z,-7.10
2023-02-09T23:48:50.049Z,-7.20
2023-02-09T23:51:24.310Z,-7.20
2023-02-09T23:53:51.168Z,-7.20
2023-02-09T23:56:19.093Z,-7.20
2023-02-09T23:58:47.875Z,-7.20
